Time;durP1;ratioP1;P1;durP2;ratioP2;P2;SDS_P1;SDS_P2;PMS_P1;PMS_P2;Temp;Humidity;BMP_temperature;BMP_pressure;BME280_temperature;BME280_humidity;BME280_pressure;Samples;Min_cycle;Max_cycle;Signal;HPM_P1;HPM_P2
2022/04/15 00:02:20;;;;;;;24.23;13.27;;;5.60;99.90;;;;;;5014605;28;20111;-82
2022/04/15 00:04:46;;;;;;;24.88;12.55;;;5.70;99.90;;;;;;5014606;28;20393;-82
2022/04/15 00:07:11;;;;;;;33.95;14.43;;;5.80;99.90;;;;;;5014240;28;20038;-82
2022/04/15 00:09:37;;;;;;;30.20;13.82;;;5.90;99.90;;;;;;5014584;28;20404;-82
2022/04/15 00:12:06;;;;;;;26.70;12.75;;;5.90;99.90;;;;;;5014041;28;20037;-81
2022/04/15 00:14:33;;;;;;;27.35;12.77;;;6.00;99.90;;;;;;5014746;28;20042;-82
2022/04/15 00:16:58;;;;;;;32.35;13.27;;;6.10;99.90;;;;;;5014397;28;20072;-82
2022/04/15 00:19:24;;;;;;;23.85;12.30;;;6.20;99.90;;;;;;5014031;28;20050;-82
2022/04/15 00:21:50;;;;;;;22.73;11.77;;;6.20;99.90;;;;;;5014277;28;20042;-82
2022/04/15 00:24:15;;;;;;;25.77;12.07;;;6.30;99.90;;;;;;5014307;28;20050;-82
2022/04/15 00:26:41;;;;;;;23.75;11.00;;;6.30;99.90;;;;;;5014353;28;20038;-82
2022/04/15 00:29:07;;;;;;;21.67;11.27;;;6.40;99.90;;;;;;5014148;28;20050;-82
2022/04/15 00:31:33;;;;;;;25.88;11.65;;;6.40;99.90;;;;;;5014501;28;20531;-82
2022/04/15 00:33:59;;;;;;;17.70;9.77;;;6.50;99.90;;;;;;5014257;28;20121;-82
2022/04/15 00:36:25;;;;;;;26.95;11.35;;;6.50;99.90;;;;;;5014155;28;20069;-82
2022/04/15 00:38:50;;;;;;;25.55;11.35;;;6.50;99.90;;;;;;5014202;28;20528;-82
2022/04/15 00:41:16;;;;;;;17.40;10.35;;;6.60;99.90;;;;;;5014209;28;20046;-82
2022/04/15 00:43:42;;;;;;;19.55;10.25;;;6.60;99.90;;;;;;5012660;28;20049;-82
2022/04/15 00:46:11;;;;;;;16.58;9.80;;;6.90;99.90;;;;;;5014569;28;20072;-82
2022/04/15 00:48:37;;;;;;;20.52;10.48;;;6.70;99.90;;;;;;5029371;28;20065;-82
2022/04/15 00:51:04;;;;;;;25.92;9.90;;;6.70;99.90;;;;;;5014347;28;20045;-82
2022/04/15 00:53:31;;;;;;;26.88;9.93;;;6.70;99.90;;;;;;5014437;28;20121;-82
2022/04/15 00:56:03;;;;;;;21.38;9.93;;;6.70;99.90;;;;;;5013823;28;20041;-82
2022/04/15 00:58:32;;;;;;;24.15;10.00;;;6.80;99.90;;;;;;5014017;28;20104;-82
2022/04/15 01:00:59;;;;;;;19.70;9.23;;;6.80;99.90;;;;;;5013482;28;20092;-82
2022/04/15 01:03:25;;;;;;;17.90;9.40;;;6.80;99.90;;;;;;5013591;28;20050;-82
2022/04/15 01:05:54;;;;;;;24.33;10.23;;;6.80;99.90;;;;;;5013296;28;20403;-82
2022/04/15 01:08:23;;;;;;;24.25;10.25;;;6.80;99.90;;;;;;5013998;28;20057;-83
2022/04/15 01:10:52;;;;;;;17.67;9.00;;;6.90;99.90;;;;;;5014439;28;20100;-82
2022/04/15 01:13:18;;;;;;;16.88;9.35;;;6.90;99.90;;;;;;5018050;28;20140;-82
2022/04/15 01:15:44;;;;;;;22.52;8.98;;;6.90;99.90;;;;;;5017454;28;20045;-82
2022/04/15 01:18:09;;;;;;;21.00;9.30;;;6.90;99.90;;;;;;5017997;28;20042;-82
2022/04/15 01:20:36;;;;;;;17.95;9.15;;;7.00;99.90;;;;;;5017401;28;20049;-82
2022/04/15 01:23:09;;;;;;;19.02;8.68;;;7.00;99.90;;;;;;5017095;28;20048;-82
2022/04/15 01:25:35;;;;;;;16.40;8.65;;;7.00;99.90;;;;;;5016935;28;20108;-82
2022/04/15 01:28:01;;;;;;;16.67;8.70;;;7.00;99.90;;;;;;5017720;28;20065;-82
2022/04/15 01:30:26;;;;;;;18.80;8.65;;;7.10;99.90;;;;;;5017329;28;20065;-82
2022/04/15 01:32:52;;;;;;;21.67;9.40;;;7.10;99.90;;;;;;5017064;28;20091;-82
2022/04/15 01:35:19;;;;;;;17.38;9.13;;;7.20;99.90;;;;;;5017461;28;20042;-82
2022/04/15 01:37:46;;;;;;;20.77;7.80;;;7.20;99.90;;;;;;5017347;28;20453;-82
2022/04/15 01:40:14;;;;;;;18.45;8.55;;;7.20;99.90;;;;;;5015982;28;20052;-82
2022/04/15 01:42:41;;;;;;;15.98;7.68;;;7.30;99.90;;;;;;5018451;28;20061;-82
2022/04/15 01:45:08;;;;;;;17.73;8.32;;;7.30;99.90;;;;;;5016794;28;20107;-83
2022/04/15 01:47:34;;;;;;;17.25;7.78;;;7.30;99.90;;;;;;5017083;28;20389;-83
2022/04/15 01:50:00;;;;;;;15.48;8.48;;;7.30;99.90;;;;;;5017402;28;20049;-83
2022/04/15 01:52:26;;;;;;;18.42;7.50;;;7.30;99.90;;;;;;5017087;28;20053;-83
2022/04/15 01:54:51;;;;;;;14.15;7.60;;;7.30;99.90;;;;;;5017091;28;20400;-83
2022/04/15 01:57:20;;;;;;;17.70;7.32;;;7.30;99.90;;;;;;5016991;28;20496;-83
2022/04/15 01:59:46;;;;;;;12.85;6.85;;;7.30;99.90;;;;;;5016544;28;21021;-83
2022/04/15 02:02:11;;;;;;;15.50;8.07;;;7.30;99.90;;;;;;5017195;28;20045;-83
2022/04/15 02:04:37;;;;;;;20.73;7.45;;;7.40;99.90;;;;;;5016712;28;20400;-83
2022/04/15 02:07:03;;;;;;;12.35;6.63;;;7.40;99.90;;;;;;5016545;28;20504;-83
2022/04/15 02:09:29;;;;;;;18.48;7.07;;;7.40;99.90;;;;;;5016851;28;20088;-83
2022/04/15 02:11:55;;;;;;;17.08;7.10;;;7.50;99.90;;;;;;5016551;28;20046;-83
2022/04/15 02:14:21;;;;;;;15.77;7.05;;;7.50;99.90;;;;;;5015343;28;20396;-82
2022/04/15 02:16:48;;;;;;;16.27;7.22;;;7.50;99.90;;;;;;5016422;28;20071;-83
2022/04/15 02:19:13;;;;;;;10.82;6.25;;;7.60;99.90;;;;;;5016083;28;20136;-82
2022/04/15 02:21:39;;;;;;;12.82;5.70;;;7.60;99.90;;;;;;5016199;28;20076;-83
2022/04/15 02:24:05;;;;;;;14.77;5.55;;;7.60;99.90;;;;;;5015717;28;20400;-83
2022/04/15 02:26:31;;;;;;;13.07;6.25;;;7.70;99.90;;;;;;5015594;28;20046;-83
2022/04/15 02:28:57;;;;;;;12.40;5.45;;;7.70;99.90;;;;;;5016237;28;20052;-82
2022/04/15 02:31:23;;;;;;;13.90;5.70;;;7.70;99.90;;;;;;5016456;28;20510;-82
2022/04/15 02:33:49;;;;;;;13.18;4.10;;;7.80;99.90;;;;;;5016070;28;20048;-82
2022/04/15 02:36:16;;;;;;;7.32;4.72;;;7.80;99.90;;;;;;5016122;28;20092;-82
2022/04/15 02:38:42;;;;;;;11.05;4.75;;;7.90;99.90;;;;;;5017741;28;20104;-83
2022/04/15 02:41:08;;;;;;;9.70;4.60;;;7.90;99.90;;;;;;5016398;28;20050;-81
2022/04/15 02:43:37;;;;;;;10.32;5.05;;;7.90;99.90;;;;;;5015676;28;20070;-81
2022/04/15 02:46:04;;;;;;;9.82;5.65;;;8.00;99.90;;;;;;5016210;28;20121;-83
2022/04/15 02:48:30;;;;;;;10.50;5.00;;;8.00;99.90;;;;;;5015850;28;20394;-83
2022/04/15 02:50:56;;;;;;;14.27;6.05;;;7.90;99.90;;;;;;5016099;28;20044;-83
2022/04/15 02:53:23;;;;;;;10.32;4.55;;;7.90;99.90;;;;;;5015941;28;20046;-83
2022/04/15 02:55:48;;;;;;;11.57;3.95;;;7.90;99.90;;;;;;5014905;28;20136;-83
2022/04/15 02:58:14;;;;;;;7.65;3.88;;;7.90;99.90;;;;;;5015483;28;20038;-83
2022/04/15 03:00:40;;;;;;;10.10;3.92;;;7.90;99.90;;;;;;5031531;28;20034;-83
2022/04/15 03:03:05;;;;;;;12.63;4.40;;;7.90;99.90;;;;;;5015990;28;20488;-81
2022/04/15 03:05:31;;;;;;;12.43;5.25;;;7.90;99.90;;;;;;4997488;28;20042;-82
2022/04/15 03:07:57;;;;;;;12.35;4.57;;;7.90;99.90;;;;;;5015712;28;20046;-82
2022/04/15 03:10:22;;;;;;;10.35;3.80;;;7.90;99.90;;;;;;5015709;28;20408;-82
2022/04/15 03:12:48;;;;;;;8.55;4.03;;;7.40;99.90;;;;;;5015417;28;20401;-82
2022/04/15 03:15:14;;;;;;;13.13;5.43;;;8.00;99.90;;;;;;5031086;28;20590;-82
2022/04/15 03:17:39;;;;;;;21.63;7.55;;;8.00;99.90;;;;;;5015557;28;20065;-82
2022/04/15 03:20:07;;;;;;;16.80;8.27;;;8.00;99.90;;;;;;5014072;28;20189;-82
2022/04/15 03:22:40;;;;;;;15.23;8.52;;;8.00;99.90;;;;;;5015430;28;20048;-82
2022/04/15 03:25:09;;;;;;;19.92;10.45;;;8.00;99.90;;;;;;5015299;28;20048;-82
2022/04/15 03:27:35;;;;;;;23.08;12.02;;;7.90;99.90;;;;;;5015002;28;20093;-82
2022/04/15 03:30:01;;;;;;;21.83;11.98;;;7.90;99.90;;;;;;5015317;28;20579;-82
2022/04/15 03:32:27;;;;;;;18.98;10.25;;;7.90;99.90;;;;;;5015135;28;20388;-82
2022/04/15 03:34:56;;;;;;;20.50;10.90;;;7.80;99.90;;;;;;5015306;28;20042;-82
2022/04/15 03:37:22;;;;;;;15.85;9.38;;;7.80;99.90;;;;;;5014963;28;20054;-82
2022/04/15 03:39:48;;;;;;;15.85;11.05;;;7.70;99.90;;;;;;5014526;28;20129;-82
2022/04/15 03:42:13;;;;;;;17.08;9.82;;;7.70;99.90;;;;;;5014762;28;20050;-82
2022/04/15 03:44:39;;;;;;;15.80;9.25;;;7.70;99.90;;;;;;5015069;28;20054;-82
2022/04/15 03:47:06;;;;;;;13.18;8.70;;;7.70;99.90;;;;;;5014592;28;20046;-82
2022/04/15 03:49:32;;;;;;;10.65;6.88;;;7.60;99.90;;;;;;5014823;28;20042;-82
2022/04/15 03:51:58;;;;;;;10.35;7.70;;;7.60;99.90;;;;;;5014850;28;20048;-82
2022/04/15 03:54:24;;;;;;;10.85;6.68;;;7.50;99.90;;;;;;5014569;28;20608;-82
2022/04/15 03:56:49;;;;;;;10.98;7.72;;;7.50;99.90;;;;;;5030202;28;20125;-82
2022/04/15 03:59:15;;;;;;;9.75;6.70;;;7.50;99.90;;;;;;5014878;28;20038;-82
2022/04/15 04:01:42;;;;;;;13.18;6.47;;;7.40;99.90;;;;;;5015114;28;20634;-82
2022/04/15 04:04:08;;;;;;;9.68;5.82;;;7.30;99.90;;;;;;5014832;28;20054;-82
2022/04/15 04:06:33;;;;;;;10.95;5.70;;;7.30;99.90;;;;;;5013484;28;20075;-82
2022/04/15 04:08:59;;;;;;;10.75;6.07;;;7.30;99.90;;;;;;5015014;28;20044;-82
2022/04/15 04:11:25;;;;;;;11.43;5.47;;;7.20;99.90;;;;;;5029550;28;20042;-82
2022/04/15 04:13:51;;;;;;;9.52;5.47;;;7.20;99.90;;;;;;5014904;28;20037;-82
2022/04/15 04:16:19;;;;;;;9.68;5.80;;;7.20;99.90;;;;;;5014813;28;20096;-82
2022/04/15 04:18:45;;;;;;;10.52;5.78;;;7.10;99.90;;;;;;5014794;28;20042;-82
2022/04/15 04:21:12;;;;;;;9.50;6.03;;;7.10;99.90;;;;;;5016743;28;20097;-82
2022/04/15 04:23:38;;;;;;;9.65;6.75;;;7.10;99.90;;;;;;5014724;28;20053;-81
2022/04/15 04:26:04;;;;;;;9.88;6.35;;;7.10;99.90;;;;;;5014760;28;20038;-82
2022/04/15 04:28:30;;;;;;;10.25;6.63;;;7.10;99.90;;;;;;5014099;28;20615;-82
2022/04/15 04:30:56;;;;;;;12.07;5.70;;;7.10;99.90;;;;;;5014818;28;20041;-82
2022/04/15 04:33:22;;;;;;;13.05;7.13;;;7.00;99.90;;;;;;5014321;28;20169;-82
2022/04/15 04:35:48;;;;;;;7.93;5.50;;;7.00;99.90;;;;;;5014395;28;20169;-82
2022/04/15 04:38:13;;;;;;;12.63;5.35;;;7.00;99.90;;;;;;5014798;28;20073;-83
2022/04/15 04:40:41;;;;;;;10.60;7.15;;;6.90;99.90;;;;;;5014073;28;20088;-83
2022/04/15 04:43:07;;;;;;;10.38;6.53;;;6.90;99.90;;;;;;5014085;28;20050;-82
2022/04/15 04:45:33;;;;;;;8.95;5.75;;;6.90;99.90;;;;;;5015358;28;20053;-83
2022/04/15 04:48:00;;;;;;;12.23;5.57;;;6.90;99.90;;;;;;5018317;28;20046;-83
2022/04/15 04:50:28;;;;;;;8.35;5.50;;;7.00;99.90;;;;;;5017179;28;20408;-83
2022/04/15 04:52:57;;;;;;;9.38;4.95;;;7.00;99.90;;;;;;5018506;28;20041;-83
2022/04/15 04:55:23;;;;;;;9.00;4.75;;;7.00;99.90;;;;;;5018792;28;20046;-83
2022/04/15 04:57:48;;;;;;;11.80;5.25;;;6.90;99.90;;;;;;5018045;28;20125;-83
2022/04/15 05:00:23;;;;;;;7.25;4.55;;;7.10;99.90;;;;;;5019306;28;20038;-83
2022/04/15 05:02:48;;;;;;;9.75;5.50;;;7.10;99.90;;;;;;5033502;28;20059;-83
2022/04/15 05:05:14;;;;;;;8.48;5.40;;;7.10;99.90;;;;;;5017961;28;20030;-83
2022/04/15 05:07:40;;;;;;;7.68;5.45;;;7.10;99.90;;;;;;5018016;28;20408;-81
2022/04/15 05:10:06;;;;;;;6.55;3.90;;;7.10;99.90;;;;;;5017643;28;20046;-82
2022/04/15 05:12:35;;;;;;;6.15;4.07;;;7.10;99.90;;;;;;5017648;28;20384;-82
2022/04/15 05:15:00;;;;;;;5.90;3.90;;;7.00;99.90;;;;;;5018174;28;20096;-82
2022/04/15 05:17:26;;;;;;;9.90;3.92;;;7.00;99.90;;;;;;5017918;28;20045;-82
2022/04/15 05:19:51;;;;;;;7.40;4.45;;;7.00;99.90;;;;;;5017887;28;20042;-82
2022/04/15 05:22:18;;;;;;;12.13;5.93;;;7.00;99.90;;;;;;5017198;28;20046;-82
2022/04/15 05:24:44;;;;;;;8.35;4.93;;;7.00;99.90;;;;;;5017648;28;20108;-82
2022/04/15 05:27:09;;;;;;;10.10;4.78;;;7.00;99.90;;;;;;5016283;28;20073;-82
2022/04/15 05:29:41;;;;;;;10.73;5.25;;;7.00;99.90;;;;;;5017584;28;20046;-82
2022/04/15 05:32:09;;;;;;;12.27;4.75;;;7.10;99.90;;;;;;5018612;28;20045;-83
2022/04/15 05:34:35;;;;;;;10.18;5.55;;;7.00;99.90;;;;;;5016812;28;20100;-82
2022/04/15 05:37:00;;;;;;;7.78;5.43;;;7.00;99.90;;;;;;5017178;28;20460;-83
2022/04/15 05:39:26;;;;;;;16.58;6.03;;;7.00;99.90;;;;;;5017147;28;20438;-83
2022/04/15 05:41:51;;;;;;;11.10;6.22;;;7.00;99.90;;;;;;5016867;28;20128;-82
2022/04/15 05:44:20;;;;;;;13.63;6.00;;;7.00;99.90;;;;;;5017501;28;20096;-83
2022/04/15 05:46:45;;;;;;;9.85;6.05;;;7.00;99.90;;;;;;5016891;28;20048;-83
2022/04/15 05:49:15;;;;;;;49.28;8.68;;;7.70;99.90;;;;;;5017355;28;20492;-82
2022/04/15 05:51:42;;;;;;;13.77;6.32;;;7.00;99.90;;;;;;5016798;28;20054;-83
2022/04/15 05:54:07;;;;;;;15.48;5.85;;;7.00;99.90;;;;;;5016530;28;20515;-83
2022/04/15 05:56:33;;;;;;;10.65;5.40;;;7.00;99.90;;;;;;4999189;28;20053;-83
2022/04/15 05:58:59;;;;;;;16.90;7.13;;;7.00;99.90;;;;;;5016925;28;20484;-83
2022/04/15 06:01:24;;;;;;;13.90;7.20;;;7.00;99.90;;;;;;5016782;28;20518;-83
2022/04/15 06:03:50;;;;;;;11.00;6.50;;;7.00;99.90;;;;;;5016698;28;20484;-82
2022/04/15 06:06:15;;;;;;;10.23;6.20;;;7.10;99.90;;;;;;5016882;28;20579;-83
2022/04/15 06:08:41;;;;;;;13.25;7.13;;;7.10;99.90;;;;;;5017140;28;20500;-83
2022/04/15 06:11:07;;;;;;;10.98;7.15;;;7.10;99.90;;;;;;5016467;28;20048;-83
2022/04/15 06:13:33;;;;;;;14.77;8.32;;;7.10;99.90;;;;;;5016888;28;20052;-82
2022/04/15 06:15:59;;;;;;;14.98;6.85;;;7.20;99.90;;;;;;5017192;28;20050;-82
2022/04/15 06:18:29;;;;;;;16.92;8.48;;;7.20;99.90;;;;;;5016579;28;20112;-83
2022/04/15 06:20:55;;;;;;;12.15;7.28;;;7.20;99.90;;;;;;5015249;28;20060;-83
2022/04/15 06:23:21;;;;;;;15.57;7.60;;;7.30;99.90;;;;;;5016331;28;20472;-83
2022/04/15 06:25:49;;;;;;;14.10;8.18;;;7.30;99.90;;;;;;5016340;28;20512;-83
2022/04/15 06:28:15;;;;;;;12.40;7.90;;;7.40;99.90;;;;;;5016296;28;20042;-83
2022/04/15 06:30:40;;;;;;;12.05;7.40;;;7.40;99.90;;;;;;5016776;28;20083;-83
2022/04/15 06:33:08;;;;;;;14.48;8.73;;;7.50;99.90;;;;;;5016071;28;20067;-83
2022/04/15 06:35:37;;;;;;;11.98;7.93;;;7.60;99.90;;;;;;5015516;28;20393;-83
2022/04/15 06:38:03;;;;;;;16.38;9.43;;;7.50;99.90;;;;;;5016709;28;20041;-83
2022/04/15 06:40:28;;;;;;;15.15;9.43;;;7.50;99.90;;;;;;5016213;28;20125;-83
2022/04/15 06:42:54;;;;;;;15.20;8.95;;;7.60;99.90;;;;;;5016418;28;20057;-83
2022/04/15 06:45:19;;;;;;;14.93;9.00;;;7.60;99.90;;;;;;5015007;28;20112;-83
2022/04/15 06:47:45;;;;;;;16.42;10.07;;;7.60;99.90;;;;;;5016147;28;20038;-83
2022/04/15 06:50:11;;;;;;;17.05;8.73;;;7.70;99.90;;;;;;5016042;28;20435;-83
2022/04/15 06:52:37;;;;;;;18.98;9.65;;;7.80;99.90;;;;;;5015889;28;20064;-83
2022/04/15 06:55:04;;;;;;;21.08;9.88;;;7.80;99.90;;;;;;5015783;28;20050;-82
2022/04/15 06:57:31;;;;;;;16.05;9.38;;;7.80;99.90;;;;;;5015923;28;20076;-83
2022/04/15 06:59:57;;;;;;;18.17;9.20;;;7.90;99.90;;;;;;5015744;28;20500;-82
2022/04/15 07:02:22;;;;;;;17.80;9.85;;;7.90;99.90;;;;;;5015715;28;20077;-83
2022/04/15 07:04:48;;;;;;;15.00;10.20;;;8.00;99.90;;;;;;5015847;28;20139;-82
2022/04/15 07:07:14;;;;;;;19.13;10.27;;;8.00;99.90;;;;;;5015268;28;20472;-83
2022/04/15 07:09:39;;;;;;;22.40;10.55;;;8.20;99.90;;;;;;5014540;28;20104;-83
2022/04/15 07:12:05;;;;;;;18.20;10.30;;;8.20;99.90;;;;;;5015520;28;20084;-83
2022/04/15 07:14:33;;;;;;;17.98;10.48;;;8.30;99.90;;;;;;5014621;28;20046;-83
2022/04/15 07:16:59;;;;;;;22.17;11.20;;;8.40;99.90;;;;;;5015246;28;20041;-82
2022/04/15 07:19:24;;;;;;;25.27;10.93;;;8.40;99.90;;;;;;5015304;28;20147;-83
2022/04/15 07:21:50;;;;;;;23.02;11.27;;;8.40;99.90;;;;;;5014852;28;20069;-83
2022/04/15 07:24:15;;;;;;;19.80;12.07;;;8.40;99.90;;;;;;5015125;28;20050;-83
2022/04/15 07:26:41;;;;;;;21.42;11.55;;;8.40;99.90;;;;;;5016353;28;20432;-82
2022/04/15 07:29:07;;;;;;;20.20;11.82;;;8.50;99.90;;;;;;5015288;28;20121;-82
2022/04/15 07:31:34;;;;;;;25.77;11.90;;;8.60;99.90;;;;;;5015043;28;20045;-82
2022/04/15 07:33:59;;;;;;;26.52;10.98;;;8.70;99.90;;;;;;5015099;28;20055;-82
2022/04/15 07:36:42;;;;;;;18.52;11.10;;;8.80;99.90;;;;;;5015056;28;20050;-81
2022/04/15 07:39:09;;;;;;;18.20;10.02;;;8.80;99.90;;;;;;5013580;28;20064;-81
2022/04/15 07:41:39;;;;;;;19.23;10.48;;;8.90;99.90;;;;;;5014756;28;20052;-81
2022/04/15 07:44:09;;;;;;;21.38;10.38;;;9.00;99.90;;;;;;5014162;28;20050;-81
2022/04/15 07:46:38;;;;;;;17.35;9.50;;;9.00;99.90;;;;;;5014524;28;20554;-82
2022/04/15 07:49:04;;;;;;;16.65;9.20;;;8.90;99.90;;;;;;5014641;28;20125;-82
2022/04/15 07:51:31;;;;;;;19.95;9.75;;;8.90;99.90;;;;;;5014411;28;20104;-82
2022/04/15 07:53:56;;;;;;;16.45;8.68;;;8.90;99.90;;;;;;5014424;28;20050;-82
2022/04/15 07:56:22;;;;;;;20.08;8.18;;;8.80;99.90;;;;;;5014677;28;20045;-82
2022/04/15 07:58:50;;;;;;;13.95;8.00;;;8.80;99.90;;;;;;5014259;28;20092;-82
2022/04/15 08:01:19;;;;;;;20.08;7.28;;;8.90;99.90;;;;;;5013989;28;20061;-82
2022/04/15 08:03:46;;;;;;;23.45;8.73;;;8.90;99.90;;;;;;5014856;28;20042;-82
2022/04/15 08:06:13;;;;;;;14.05;6.43;;;9.00;99.90;;;;;;5013897;28;20041;-82
2022/04/15 08:08:38;;;;;;;14.45;7.03;;;9.00;99.90;;;;;;5014533;28;20038;-82
2022/04/15 08:11:04;;;;;;;14.93;6.45;;;9.20;99.90;;;;;;5013948;28;20192;-82
2022/04/15 08:13:30;;;;;;;15.90;6.80;;;9.30;99.90;;;;;;5013448;28;20114;-82
2022/04/15 08:15:56;;;;;;;13.18;6.75;;;9.40;99.90;;;;;;5014645;28;20049;-82
2022/04/15 08:18:23;;;;;;;11.43;6.18;;;9.30;99.90;;;;;;5014570;28;20543;-82
2022/04/15 08:20:50;;;;;;;10.82;4.45;;;9.50;99.90;;;;;;5013498;28;20050;-82
2022/04/15 08:23:17;;;;;;;11.95;5.03;;;9.70;99.90;;;;;;5014186;28;20088;-82
2022/04/15 08:25:43;;;;;;;8.07;4.32;;;9.80;99.90;;;;;;5013982;28;20446;-82
2022/04/15 08:28:10;;;;;;;10.68;4.50;;;9.60;99.90;;;;;;5014471;28;20116;-82
2022/04/15 08:30:37;;;;;;;10.80;4.82;;;9.60;99.90;;;;;;5014405;28;20061;-82
2022/04/15 08:33:05;;;;;;;12.30;5.35;;;9.80;99.90;;;;;;5013081;28;20126;-82
2022/04/15 08:35:31;;;;;;;13.00;5.35;;;9.90;99.90;;;;;;5014445;28;20480;-82
2022/04/15 08:37:56;;;;;;;17.45;5.15;;;9.90;99.90;;;;;;5014545;28;20046;-82
2022/04/15 08:40:22;;;;;;;11.15;5.38;;;9.90;99.90;;;;;;5014703;28;20042;-82
2022/04/15 08:42:48;;;;;;;8.40;4.40;;;9.90;99.90;;;;;;5015064;28;20054;-82
2022/04/15 08:45:13;;;;;;;12.73;5.32;;;10.00;99.90;;;;;;5014819;28;21024;-82
2022/04/15 08:47:41;;;;;;;10.77;5.55;;;10.10;99.90;;;;;;5013756;28;20042;-82
2022/04/15 08:50:10;;;;;;;9.57;5.65;;;10.30;99.90;;;;;;5012229;28;20046;-82
2022/04/15 08:52:36;;;;;;;9.65;6.30;;;10.50;99.90;;;;;;5013191;28;20134;-83
2022/04/15 08:55:05;;;;;;;11.95;7.10;;;10.50;99.90;;;;;;5011910;28;20120;-82
2022/04/15 08:57:31;;;;;;;10.52;5.88;;;10.60;99.90;;;;;;5013708;28;20050;-82
2022/04/15 08:59:57;;;;;;;14.63;6.90;;;10.50;99.90;;;;;;5013189;28;20385;-82
2022/04/15 09:02:31;;;;;;;10.82;6.25;;;10.50;99.90;;;;;;5012314;28;20107;-83
2022/04/15 09:04:57;;;;;;;8.00;4.65;;;10.50;99.90;;;;;;5013398;28;20377;-82
2022/04/15 09:07:26;;;;;;;10.27;5.72;;;10.50;99.90;;;;;;5013273;28;20049;-82
2022/04/15 09:10:00;;;;;;;13.05;5.65;;;10.80;99.90;;;;;;5013395;28;20506;-82
2022/04/15 09:12:29;;;;;;;11.90;5.10;;;10.80;99.90;;;;;;5013659;28;20046;-83
2022/04/15 09:15:01;;;;;;;13.13;6.57;;;11.20;99.90;;;;;;5013488;28;20045;-82
2022/04/15 09:17:28;;;;;;;13.68;4.68;;;11.90;99.90;;;;;;4995676;28;20057;-82
2022/04/15 09:19:54;;;;;;;11.93;5.30;;;11.90;99.90;;;;;;4995906;28;20081;-81
2022/04/15 09:22:20;;;;;;;14.57;5.00;;;12.00;99.90;;;;;;5013203;28;20080;-81
2022/04/15 09:24:47;;;;;;;8.15;4.93;;;12.00;99.90;;;;;;5011982;28;20038;-82
2022/04/15 09:27:14;;;;;;;12.50;4.22;;;12.50;99.90;;;;;;5013165;28;20046;-82
2022/04/15 09:29:40;;;;;;;10.68;5.30;;;12.50;99.90;;;;;;5013302;28;20073;-82
2022/04/15 09:32:16;;;;;;;10.10;4.70;;;12.00;99.90;;;;;;5013960;28;20042;-82
2022/04/15 09:35:01;;;;;;;8.77;5.15;;;11.70;99.90;;;;;;5016512;28;20124;-82
2022/04/15 09:37:31;;;;;;;10.05;5.50;;;11.30;99.90;;;;;;5016893;28;20115;-82
2022/04/15 09:40:18;;;;;;;10.85;4.50;;;11.30;99.90;;;;;;5017318;28;20527;-82
2022/04/15 09:42:54;;;;;;;11.75;5.30;;;11.20;99.90;;;;;;5032020;28;20080;-82
2022/04/15 09:45:21;;;;;;;9.30;4.97;;;11.20;99.90;;;;;;5017029;28;20042;-82
2022/04/15 09:48:01;;;;;;;13.70;5.68;;;11.20;99.90;;;;;;5016956;28;20088;-82
2022/04/15 09:50:32;;;;;;;8.38;5.50;;;11.60;99.90;;;;;;5018071;28;20077;-82
2022/04/15 09:53:14;;;;;;;11.52;5.05;;;11.90;99.90;;;;;;5034622;28;20041;-82
2022/04/15 09:55:43;;;;;;;9.27;5.07;;;11.90;99.90;;;;;;5035686;28;20034;-82
2022/04/15 09:58:19;;;;;;;6.40;4.05;;;11.80;99.90;;;;;;5037487;28;20100;-82
2022/04/15 10:00:51;;;;;;;13.00;5.82;;;11.90;99.90;;;;;;5018117;28;20081;-83
2022/04/15 10:03:21;;;;;;;8.32;4.72;;;11.80;99.90;;;;;;5016894;28;20049;-83
2022/04/15 10:05:49;;;;;;;11.23;5.78;;;11.60;99.90;;;;;;5016426;28;20512;-82
2022/04/15 10:08:19;;;;;;;14.70;6.25;;;11.30;99.90;;;;;;5015693;28;20401;-82
2022/04/15 10:10:46;;;;;;;10.10;5.53;;;11.40;99.90;;;;;;5016289;28;20088;-82
2022/04/15 10:13:13;;;;;;;9.82;6.03;;;11.30;99.90;;;;;;5016390;28;20126;-82
2022/04/15 10:15:39;;;;;;;11.48;5.38;;;11.10;99.90;;;;;;5017487;28;20129;-82
2022/04/15 10:18:05;;;;;;;12.60;6.75;;;11.20;99.90;;;;;;5016221;28;20050;-82
2022/04/15 10:20:32;;;;;;;18.55;6.35;;;11.30;99.90;;;;;;5015037;28;20049;-82
2022/04/15 10:23:06;;;;;;;10.82;5.90;;;11.40;99.90;;;;;;5016540;28;20500;-82
2022/04/15 10:25:32;;;;;;;11.02;5.32;;;11.60;99.90;;;;;;5016552;28;20048;-82
2022/04/15 10:28:18;;;;;;;10.25;5.30;;;11.70;99.90;;;;;;5016300;28;20038;-82
2022/04/15 10:30:51;;;;;;;10.85;5.18;;;11.50;99.90;;;;;;5016523;28;20061;-82
2022/04/15 10:33:30;;;;;;;13.55;5.40;;;11.50;99.90;;;;;;5016131;28;20053;-82
2022/04/15 10:36:22;;;;;;;7.97;5.10;;;11.40;99.90;;;;;;5015803;28;20054;-81
2022/04/15 10:39:03;;;;;;;11.85;5.72;;;11.20;99.90;;;;;;5008208;28;20054;-82
2022/04/15 10:41:51;;;;;;;11.32;5.53;;;11.30;99.90;;;;;;5015486;28;20073;-82
2022/04/15 10:44:29;;;;;;;14.43;5.55;;;11.10;99.90;;;;;;5014869;28;20057;-82
2022/04/15 10:47:03;;;;;;;12.00;5.65;;;11.10;99.90;;;;;;5015536;28;20441;-82
2022/04/15 10:49:30;;;;;;;9.63;5.90;;;10.90;99.90;;;;;;5015895;28;20054;-82
2022/04/15 10:51:58;;;;;;;11.80;5.78;;;11.00;99.90;;;;;;5016147;28;20072;-82
2022/04/15 10:54:36;;;;;;;10.35;5.38;;;10.90;99.90;;;;;;5015772;28;20099;-82
2022/04/15 10:57:20;;;;;;;12.93;6.93;;;10.90;99.90;;;;;;5015739;28;20077;-82
2022/04/15 11:02:48;;;;;;;8.75;5.05;;;10.60;99.90;;;;;;5015996;28;20045;-82
2022/04/15 11:05:32;;;;;;;10.00;5.38;;;10.70;99.90;;;;;;5015732;28;20058;-82
2022/04/15 11:08:03;;;;;;;11.60;6.28;;;10.90;99.90;;;;;;5015141;28;20038;-82
2022/04/15 11:10:58;;;;;;;10.77;5.35;;;11.00;99.90;;;;;;5015427;28;20053;-82
2022/04/15 11:13:24;;;;;;;10.95;5.78;;;11.70;99.90;;;;;;5014160;28;20054;-82
2022/04/15 11:16:11;;;;;;;11.48;6.03;;;11.30;99.90;;;;;;5014841;28;20451;-82
2022/04/15 11:18:53;;;;;;;8.82;5.90;;;11.20;99.90;;;;;;5015350;28;20050;-82
2022/04/15 11:21:37;;;;;;;9.93;6.38;;;11.10;99.90;;;;;;5014938;28;20117;-81
2022/04/15 11:24:05;;;;;;;9.30;5.97;;;11.50;99.90;;;;;;5014838;28;20034;-81
2022/04/15 11:26:32;;;;;;;9.18;6.10;;;11.10;99.90;;;;;;5014841;28;20069;-82
2022/04/15 11:28:59;;;;;;;12.07;6.55;;;10.90;99.90;;;;;;5014534;28;20511;-82
2022/04/15 11:31:33;;;;;;;30.83;7.05;;;10.80;99.90;;;;;;5014247;28;20074;-81
2022/04/15 11:34:17;;;;;;;10.20;6.10;;;10.80;99.90;;;;;;5014464;28;20100;-82
2022/04/15 11:36:45;;;;;;;13.02;6.15;;;10.70;99.90;;;;;;5014959;28;20080;-82
2022/04/15 11:39:19;;;;;;;19.20;6.55;;;10.50;99.90;;;;;;5014462;28;20038;-82
2022/04/15 11:41:47;;;;;;;14.00;6.05;;;10.60;99.90;;;;;;5014198;28;20050;-82
2022/04/15 11:44:14;;;;;;;11.63;6.43;;;10.60;99.90;;;;;;5015063;28;20081;-82
2022/04/15 11:46:42;;;;;;;13.02;6.55;;;10.70;99.90;;;;;;5015186;28;20041;-82
2022/04/15 11:49:14;;;;;;;14.02;6.00;;;10.40;99.90;;;;;;5013121;28;20075;-82
2022/04/15 11:51:43;;;;;;;11.30;6.18;;;10.40;99.90;;;;;;5015177;28;20042;-82
2022/04/15 11:54:09;;;;;;;11.25;5.93;;;10.50;99.90;;;;;;5014163;28;20042;-82
2022/04/15 11:56:35;;;;;;;11.23;6.00;;;10.40;99.90;;;;;;5014353;28;20129;-82
2022/04/15 11:59:00;;;;;;;11.98;6.45;;;10.40;99.90;;;;;;5014592;28;20168;-82
2022/04/15 12:01:32;;;;;;;11.40;5.75;;;10.60;99.90;;;;;;5014432;28;20524;-82
2022/04/15 12:03:59;;;;;;;10.07;5.38;;;10.50;99.90;;;;;;5014348;28;20046;-82
2022/04/15 12:06:25;;;;;;;9.30;5.22;;;10.40;99.90;;;;;;5014120;28;20038;-82
2022/04/15 12:08:51;;;;;;;11.30;6.68;;;10.50;99.90;;;;;;5014264;28;20049;-82
2022/04/15 12:11:23;;;;;;;14.40;6.28;;;10.40;99.90;;;;;;5014037;28;20033;-81
2022/04/15 12:13:56;;;;;;;13.25;5.47;;;10.40;99.90;;;;;;5014502;28;20404;-82
2022/04/15 12:16:22;;;;;;;14.20;6.20;;;10.50;99.90;;;;;;5013686;28;20034;-82
2022/04/15 12:18:47;;;;;;;9.10;5.80;;;10.40;99.90;;;;;;5014629;28;20613;-82
2022/04/15 12:21:13;;;;;;;173.35;17.10;;;10.40;99.90;;;;;;5013980;28;20049;-82
2022/04/15 12:23:38;;;;;;;95.13;12.57;;;10.50;99.90;;;;;;5015332;28;20060;-82
2022/04/15 12:26:06;;;;;;;10.75;5.68;;;10.50;99.90;;;;;;5014788;28;20392;-82
2022/04/15 12:31:32;;;;;;;8.60;5.20;;;10.70;99.90;;;;;;5013952;28;20049;-82
2022/04/15 12:34:02;;;;;;;10.77;5.05;;;10.70;99.90;;;;;;5014442;28;20136;-82
2022/04/15 12:36:48;;;;;;;8.18;4.88;;;10.60;99.90;;;;;;5013946;28;20041;-83
2022/04/15 12:39:14;;;;;;;11.70;5.80;;;10.50;99.90;;;;;;5013380;28;20064;-82
2022/04/15 12:41:42;;;;;;;14.18;5.45;;;10.40;99.90;;;;;;5013535;28;20038;-83
2022/04/15 12:44:15;;;;;;;8.60;5.30;;;10.50;99.90;;;;;;5012914;28;20054;-82
2022/04/15 12:46:58;;;;;;;12.05;5.70;;;10.50;99.90;;;;;;5013295;28;20330;-82
2022/04/15 12:49:28;;;;;;;13.02;6.10;;;10.50;99.90;;;;;;5013610;28;20558;-82
2022/04/15 12:52:19;;;;;;;11.27;5.72;;;10.50;99.90;;;;;;5013308;28;20061;-82
2022/04/15 12:55:05;;;;;;;10.35;5.95;;;10.40;99.90;;;;;;5013620;28;20046;-82